createdAt,value
2018-05-12T00:00:06.402Z,29.23
2018-05-12T00:02:34.004Z,28.77
2018-05-12T00:05:01.497Z,26.00
2018-05-12T00:07:29.002Z,26.37
2018-05-12T00:09:56.589Z,29.00
2018-05-12T00:12:24.044Z,27.13
2018-05-12T00:14:51.537Z,28.57
2018-05-12T00:17:19.006Z,28.17
2018-05-12T00:19:46.496Z,28.80
2018-05-12T00:22:14.032Z,27.70
2018-05-12T00:24:41.621Z,28.87
2018-05-12T00:27:09.076Z,29.13
2018-05-12T00:29:36.655Z,29.27
2018-05-12T00:32:04.137Z,28.60
2018-05-12T00:34:31.633Z,28.67
2018-05-12T00:36:59.104Z,27.40
2018-05-12T00:39:26.613Z,28.60
2018-05-12T00:41:54.169Z,27.53
2018-05-12T00:44:21.664Z,28.37
2018-05-12T00:46:49.151Z,29.70
2018-05-12T00:49:16.624Z,29.63
2018-05-12T00:51:44.128Z,28.73
2018-05-12T00:54:11.604Z,28.07
2018-05-12T00:56:39.048Z,28.53
2018-05-12T00:59:06.569Z,28.43
2018-05-12T01:01:34.052Z,30.87
2018-05-12T01:04:01.537Z,30.00
2018-05-12T01:06:29.049Z,30.73
2018-05-12T01:08:56.525Z,28.43
2018-05-12T01:11:23.981Z,32.23
2018-05-12T01:13:51.513Z,30.60
2018-05-12T01:16:19.019Z,28.40
2018-05-12T01:18:46.471Z,29.83
2018-05-12T01:21:13.960Z,29.30
2018-05-12T01:23:41.456Z,28.37
2018-05-12T01:26:08.908Z,29.17
2018-05-12T01:28:36.389Z,28.83
2018-05-12T01:31:03.884Z,29.73
2018-05-12T01:33:31.381Z,29.10
2018-05-12T01:35:58.847Z,29.13
2018-05-12T01:38:26.328Z,28.50
2018-05-12T01:40:53.920Z,29.53
2018-05-12T01:43:21.467Z,29.03
2018-05-12T01:45:48.952Z,28.60
2018-05-12T01:48:16.416Z,29.40
2018-05-12T01:50:43.919Z,29.60
2018-05-12T01:53:11.387Z,28.27
2018-05-12T01:55:38.944Z,28.90
2018-05-12T01:58:06.423Z,29.07
2018-05-12T02:00:33.878Z,27.87
2018-05-12T02:03:01.374Z,27.73
2018-05-12T02:05:28.865Z,28.57
2018-05-12T02:07:56.331Z,27.80
2018-05-12T02:10:23.879Z,27.33
2018-05-12T02:12:51.471Z,27.43
2018-05-12T02:15:18.948Z,26.40
2018-05-12T02:17:46.480Z,28.60
2018-05-12T02:20:13.968Z,27.90
2018-05-12T02:22:41.469Z,29.00
2018-05-12T02:25:09.001Z,27.83
2018-05-12T02:27:36.500Z,29.80
2018-05-12T02:30:03.990Z,28.27
2018-05-12T02:32:31.478Z,29.87
2018-05-12T02:34:58.975Z,27.37
2018-05-12T02:37:26.454Z,27.90
2018-05-12T02:39:53.958Z,26.67
2018-05-12T02:42:21.469Z,28.37
2018-05-12T02:44:48.983Z,26.60
2018-05-12T02:47:16.478Z,27.77
2018-05-12T02:49:43.970Z,26.63
2018-05-12T02:52:11.488Z,27.13
2018-05-12T02:54:39.023Z,25.47
2018-05-12T02:57:06.501Z,25.47
2018-05-12T02:59:33.986Z,27.60
2018-05-12T03:02:01.450Z,25.40
2018-05-12T03:04:28.935Z,27.00
2018-05-12T03:06:56.408Z,27.40
2018-05-12T03:09:23.909Z,25.73
2018-05-12T03:11:51.386Z,27.73
2018-05-12T03:14:18.868Z,25.40
2018-05-12T03:16:46.328Z,27.10
2018-05-12T03:19:13.833Z,25.77
2018-05-12T03:21:41.378Z,27.43
2018-05-12T03:24:08.858Z,25.77
2018-05-12T03:26:36.346Z,25.10
2018-05-12T03:29:03.810Z,24.83
2018-05-12T03:31:31.321Z,26.20
2018-05-12T03:33:58.793Z,25.13
2018-05-12T03:36:26.335Z,25.90
2018-05-12T03:38:53.912Z,27.37
2018-05-12T03:41:21.453Z,25.93
2018-05-12T03:43:48.943Z,25.67
2018-05-12T03:46:16.399Z,26.43
2018-05-12T03:48:43.939Z,25.80
2018-05-12T03:51:11.499Z,24.73
2018-05-12T03:53:38.976Z,25.17
2018-05-12T03:56:06.457Z,25.97
2018-05-12T03:58:33.979Z,25.30
2018-05-12T04:01:01.471Z,26.73
2018-05-12T04:03:29.099Z,26.17
2018-05-12T04:06:08.509Z,26.17
2018-05-12T04:08:47.856Z,24.77
2018-05-12T04:11:28.176Z,25.40
2018-05-12T04:13:55.667Z,26.27
2018-05-12T04:16:23.137Z,25.83
2018-05-12T04:18:50.620Z,25.53
2018-05-12T04:21:18.122Z,25.60
2018-05-12T04:23:45.698Z,25.50
2018-05-12T04:26:13.253Z,25.47
2018-05-12T04:28:40.814Z,25.37
2018-05-12T04:31:08.273Z,23.03
2018-05-12T04:33:35.751Z,25.80
2018-05-12T04:36:03.232Z,25.40
2018-05-12T04:38:30.739Z,25.97
2018-05-12T04:40:58.237Z,25.80
2018-05-12T04:43:25.816Z,26.17
2018-05-12T04:45:53.252Z,26.10
2018-05-12T04:48:20.720Z,41.40
2018-05-12T04:50:48.214Z,24.90
2018-05-12T04:53:15.696Z,25.83
2018-05-12T04:55:43.181Z,25.63
2018-05-12T04:58:10.693Z,26.63
2018-05-12T05:00:38.189Z,26.30
2018-05-12T05:03:05.693Z,27.67
2018-05-12T05:05:33.173Z,26.20
2018-05-12T05:08:00.663Z,22.00
2018-05-12T05:10:28.181Z,23.07
2018-05-12T05:12:55.734Z,23.40
2018-05-12T05:15:23.307Z,22.90
2018-05-12T05:17:50.753Z,22.40
2018-05-12T05:20:18.342Z,24.77
2018-05-12T05:22:45.823Z,23.87
2018-05-12T05:25:13.313Z,23.43
2018-05-12T05:27:40.790Z,24.33
2018-05-12T05:30:08.250Z,24.63
2018-05-12T05:32:35.824Z,25.63
2018-05-12T05:35:03.298Z,25.03
2018-05-12T05:37:30.802Z,25.80
2018-05-12T05:39:58.409Z,26.40
2018-05-12T05:42:25.883Z,26.97
2018-05-12T05:44:53.350Z,24.27
2018-05-12T05:47:20.831Z,25.60
2018-05-12T05:49:48.325Z,27.93
2018-05-12T05:52:15.829Z,27.23
2018-05-12T05:54:43.372Z,25.83
2018-05-12T05:57:10.836Z,24.90
2018-05-12T05:59:38.329Z,27.97
2018-05-12T06:02:05.861Z,25.57
2018-05-12T06:04:33.358Z,27.73
2018-05-12T06:07:00.870Z,26.27
2018-05-12T06:09:28.382Z,26.77
2018-05-12T06:11:55.876Z,27.17
2018-05-12T06:14:23.339Z,27.10
2018-05-12T06:16:50.825Z,27.57
2018-05-12T06:19:18.423Z,27.00
2018-05-12T06:21:45.916Z,27.93
2018-05-12T06:24:13.411Z,28.50
2018-05-12T06:26:40.859Z,27.27
2018-05-12T06:29:08.313Z,28.97
2018-05-12T06:31:35.787Z,28.40
2018-05-12T06:34:03.276Z,28.20
2018-05-12T06:36:30.759Z,27.63
2018-05-12T06:38:58.249Z,28.20
2018-05-12T06:41:25.847Z,31.60
2018-05-12T06:43:53.311Z,28.80
2018-05-12T06:46:20.948Z,33.33
2018-05-12T06:48:48.489Z,31.87
2018-05-12T06:51:15.955Z,27.77
2018-05-12T06:53:43.523Z,28.63
2018-05-12T06:56:11.005Z,30.40
2018-05-12T06:58:38.508Z,29.10
2018-05-12T07:01:06.023Z,28.37
2018-05-12T07:03:33.543Z,29.30
2018-05-12T07:06:01.106Z,32.70
2018-05-12T07:08:28.680Z,28.83
2018-05-12T07:10:56.197Z,30.23
2018-05-12T07:13:23.712Z,31.93
2018-05-12T07:15:51.186Z,30.27
2018-05-12T07:18:18.688Z,29.13
2018-05-12T07:20:46.172Z,36.20
2018-05-12T07:23:13.625Z,27.10
2018-05-12T07:25:41.172Z,31.20
2018-05-12T07:28:08.658Z,29.33
2018-05-12T07:30:36.153Z,28.77
2018-05-12T07:33:03.749Z,29.50
2018-05-12T07:35:31.212Z,26.67
2018-05-12T07:37:58.704Z,28.53
2018-05-12T07:40:26.219Z,29.70
2018-05-12T07:42:53.705Z,31.30
2018-05-12T07:45:21.161Z,28.10
2018-05-12T07:47:48.654Z,25.63
2018-05-12T07:50:16.181Z,23.10
2018-05-12T07:52:43.715Z,23.30
2018-05-12T07:55:11.295Z,27.93
2018-05-12T07:57:38.865Z,27.10
2018-05-12T08:00:06.383Z,28.27
2018-05-12T08:02:33.864Z,34.03
2018-05-12T08:05:01.408Z,30.10
2018-05-12T08:07:28.908Z,25.47
2018-05-12T08:09:56.411Z,23.40
2018-05-12T08:12:23.888Z,24.00
2018-05-12T08:14:51.347Z,28.30
2018-05-12T08:17:18.939Z,26.33
2018-05-12T08:19:46.408Z,27.63
2018-05-12T08:22:14.457Z,29.50
2018-05-12T08:24:41.978Z,26.77
2018-05-12T08:27:09.577Z,24.53
2018-05-12T08:29:37.128Z,26.00
2018-05-12T08:32:04.876Z,28.03
2018-05-12T08:34:32.693Z,27.13
2018-05-12T08:37:00.335Z,25.13
2018-05-12T08:39:28.081Z,24.23
2018-05-12T08:41:55.606Z,24.87
2018-05-12T08:44:23.098Z,28.60
2018-05-12T08:46:50.566Z,25.93
2018-05-12T08:49:18.119Z,23.73
2018-05-12T08:51:45.657Z,21.97
2018-05-12T08:54:13.183Z,21.03
2018-05-12T08:56:40.674Z,23.03
2018-05-12T08:59:08.160Z,22.10
2018-05-12T09:01:35.805Z,21.67
2018-05-12T09:04:03.326Z,21.63
2018-05-12T09:06:30.891Z,22.07
2018-05-12T09:08:58.338Z,20.70
2018-05-12T09:11:25.805Z,21.00
2018-05-12T09:13:53.307Z,21.37
2018-05-12T09:16:20.804Z,19.03
2018-05-12T09:18:48.280Z,19.17
2018-05-12T09:21:15.770Z,22.80
2018-05-12T09:23:43.250Z,21.07
2018-05-12T09:26:10.759Z,19.67
2018-05-12T09:28:38.260Z,18.67
2018-05-12T09:31:05.827Z,20.00
2018-05-12T09:33:33.318Z,22.23
2018-05-12T09:36:00.887Z,19.43
2018-05-12T09:38:28.462Z,17.87
2018-05-12T09:40:56.039Z,18.60
2018-05-12T09:43:23.527Z,17.10
2018-05-12T09:45:51.037Z,22.90
2018-05-12T09:48:18.557Z,19.73
2018-05-12T09:50:46.046Z,18.30
2018-05-12T09:53:13.505Z,19.87
2018-05-12T09:55:40.971Z,17.43
2018-05-12T09:58:08.767Z,17.13
2018-05-12T10:00:36.228Z,18.80
2018-05-12T10:03:03.700Z,16.97
2018-05-12T10:05:31.172Z,16.50
2018-05-12T10:07:58.670Z,16.00
2018-05-12T10:10:26.160Z,16.37
2018-05-12T10:12:53.702Z,17.93
2018-05-12T10:15:21.166Z,16.10
2018-05-12T10:17:48.772Z,14.83
2018-05-12T10:20:16.230Z,14.53
2018-05-12T10:22:43.702Z,14.80
2018-05-12T10:25:11.248Z,14.83
2018-05-12T10:27:38.746Z,15.27
2018-05-12T10:30:06.244Z,13.93
2018-05-12T10:32:33.716Z,14.90
2018-05-12T10:35:01.381Z,16.50
2018-05-12T10:37:28.904Z,15.67
2018-05-12T10:39:56.368Z,14.87
2018-05-12T10:42:23.975Z,15.50
2018-05-12T10:44:51.559Z,15.73
2018-05-12T10:47:19.055Z,17.83
2018-05-12T10:49:46.555Z,16.43
2018-05-12T10:52:14.452Z,17.53
2018-05-12T10:54:41.973Z,17.80
2018-05-12T10:57:09.466Z,15.23
2018-05-12T10:59:36.965Z,15.00
2018-05-12T11:02:04.488Z,14.73
2018-05-12T11:04:31.955Z,13.93
2018-05-12T11:06:59.528Z,13.80
2018-05-12T11:09:27.025Z,12.73
2018-05-12T11:11:54.497Z,14.93
2018-05-12T11:14:22.136Z,13.20
2018-05-12T11:16:49.623Z,14.40
2018-05-12T11:19:17.108Z,13.83
2018-05-12T11:21:44.638Z,13.37
2018-05-12T11:24:12.121Z,13.90
2018-05-12T11:26:39.620Z,13.30
2018-05-12T11:29:07.103Z,13.90
2018-05-12T11:31:34.596Z,13.80
2018-05-12T11:34:02.087Z,13.60
2018-05-12T11:36:29.595Z,14.70
2018-05-12T11:38:57.077Z,16.13
2018-05-12T11:41:24.576Z,15.27
2018-05-12T11:43:52.052Z,14.33
2018-05-12T11:46:19.526Z,13.50
2018-05-12T11:48:47.030Z,14.73
2018-05-12T11:51:14.666Z,13.47
2018-05-12T11:53:42.191Z,13.80
2018-05-12T11:56:09.688Z,14.70
2018-05-12T11:58:37.216Z,15.70
2018-05-12T12:01:04.809Z,14.90
2018-05-12T12:03:32.328Z,15.13
2018-05-12T12:05:59.912Z,14.83
2018-05-12T12:08:27.417Z,15.13
2018-05-12T12:10:54.939Z,16.23
2018-05-12T12:13:22.431Z,13.50
2018-05-12T12:15:49.902Z,13.90
2018-05-12T12:18:17.407Z,15.17
2018-05-12T12:20:44.893Z,20.50
2018-05-12T12:23:12.425Z,12.20
2018-05-12T12:25:39.916Z,13.20
2018-05-12T12:28:07.446Z,14.00
2018-05-12T12:30:34.943Z,14.07
2018-05-12T12:33:02.430Z,14.87
2018-05-12T12:35:30.001Z,14.70
2018-05-12T12:37:57.492Z,13.57
2018-05-12T12:40:24.996Z,13.00
2018-05-12T12:42:52.521Z,14.00
2018-05-12T12:45:20.051Z,11.47
2018-05-12T12:47:47.577Z,13.10
2018-05-12T12:50:15.138Z,17.17
2018-05-12T12:52:42.713Z,13.20
2018-05-12T12:55:10.184Z,17.97
2018-05-12T12:57:37.750Z,15.40
2018-05-12T13:00:05.230Z,13.90
2018-05-12T13:02:32.724Z,13.23
2018-05-12T13:05:00.237Z,14.50
2018-05-12T13:07:27.755Z,14.90
2018-05-12T13:09:55.285Z,13.73
2018-05-12T13:12:22.880Z,12.93
2018-05-12T13:14:50.406Z,14.10
2018-05-12T13:17:17.867Z,14.60
2018-05-12T13:19:45.446Z,13.77
2018-05-12T13:22:12.981Z,14.43
2018-05-12T13:24:40.488Z,13.80
2018-05-12T13:27:07.981Z,14.37
2018-05-12T13:29:35.439Z,16.43
2018-05-12T13:32:02.905Z,12.10
2018-05-12T13:34:30.365Z,13.87
2018-05-12T13:36:57.841Z,13.40
2018-05-12T13:39:25.341Z,11.47
2018-05-12T13:41:52.862Z,13.90
2018-05-12T13:44:20.341Z,13.13
2018-05-12T13:46:47.807Z,11.83
2018-05-12T13:49:15.352Z,12.40
2018-05-12T13:51:42.835Z,12.23
2018-05-12T13:54:10.340Z,11.03
2018-05-12T13:56:37.907Z,12.10
2018-05-12T13:59:05.503Z,13.73
2018-05-12T14:01:33.078Z,11.80
2018-05-12T14:04:00.535Z,11.20
2018-05-12T14:06:28.057Z,10.27
2018-05-12T14:08:55.636Z,12.10
2018-05-12T14:11:23.111Z,10.10
2018-05-12T14:13:50.611Z,10.00
2018-05-12T14:16:18.080Z,10.27
2018-05-12T14:18:45.565Z,11.20
2018-05-12T14:21:13.034Z,9.70
2018-05-12T14:23:40.491Z,9.60
2018-05-12T14:26:08.022Z,10.70
2018-05-12T14:28:35.493Z,9.97
2018-05-12T14:31:02.964Z,9.20
2018-05-12T14:33:30.515Z,10.53
2018-05-12T14:35:58.031Z,9.03
2018-05-12T14:38:25.531Z,10.10
2018-05-12T14:40:53.218Z,10.47
2018-05-12T14:43:20.750Z,9.20
2018-05-12T14:45:48.273Z,8.97
2018-05-12T14:48:15.783Z,8.53
2018-05-12T14:50:43.273Z,9.73
2018-05-12T14:53:10.808Z,8.77
2018-05-12T14:55:38.288Z,8.90
2018-05-12T14:58:05.765Z,12.37
2018-05-12T15:00:33.244Z,8.27
2018-05-12T15:03:00.729Z,7.83
2018-05-12T15:05:28.218Z,8.80
2018-05-12T15:07:55.701Z,8.90
2018-05-12T15:10:23.167Z,10.63
2018-05-12T15:12:50.664Z,8.63
2018-05-12T15:15:18.173Z,8.23
2018-05-12T15:17:45.635Z,8.80
2018-05-12T15:20:13.089Z,7.67
2018-05-12T15:22:40.606Z,6.90
2018-05-12T15:25:08.099Z,7.63
2018-05-12T15:27:35.674Z,7.07
2018-05-12T15:30:03.198Z,6.80
2018-05-12T15:32:30.679Z,7.17
2018-05-12T15:34:58.155Z,7.80
2018-05-12T15:37:25.657Z,7.43
2018-05-12T15:39:53.176Z,6.90
2018-05-12T15:42:20.676Z,8.07
2018-05-12T15:44:48.127Z,8.30
2018-05-12T15:47:15.620Z,8.40
2018-05-12T15:49:43.121Z,7.83
2018-05-12T15:52:10.614Z,7.67
2018-05-12T15:54:38.117Z,8.60
2018-05-12T15:57:05.616Z,8.00
2018-05-12T15:59:33.117Z,8.83
2018-05-12T16:02:00.652Z,7.50
2018-05-12T16:04:28.248Z,8.77
2018-05-12T16:06:55.736Z,8.50
2018-05-12T16:09:23.225Z,8.10
2018-05-12T16:11:50.724Z,7.83
2018-05-12T16:14:18.207Z,8.40
2018-05-12T16:16:45.766Z,9.13
2018-05-12T16:19:13.286Z,9.53
2018-05-12T16:21:40.777Z,9.10
2018-05-12T16:24:08.281Z,9.80
2018-05-12T16:26:35.778Z,10.73
2018-05-12T16:29:03.251Z,11.63
2018-05-12T16:31:30.851Z,11.10
2018-05-12T16:33:58.264Z,12.23
2018-05-12T16:36:25.813Z,10.13
2018-05-12T16:38:53.328Z,8.97
2018-05-12T16:41:20.826Z,8.37
2018-05-12T16:43:48.283Z,9.67
2018-05-12T16:46:15.848Z,9.63
2018-05-12T16:48:43.376Z,8.80
2018-05-12T16:51:10.894Z,10.80
2018-05-12T16:53:38.396Z,11.30
2018-05-12T16:56:05.854Z,11.67
2018-05-12T16:58:33.377Z,10.20
2018-05-12T17:01:00.995Z,12.77
2018-05-12T17:03:28.459Z,11.40
2018-05-12T17:05:55.941Z,11.93
2018-05-12T17:08:23.405Z,11.17
2018-05-12T17:10:50.877Z,12.63
2018-05-12T17:13:18.457Z,11.63
2018-05-12T17:15:46.115Z,11.60
2018-05-12T17:18:13.685Z,12.77
2018-05-12T17:20:41.273Z,10.13
2018-05-12T17:23:09.081Z,11.80
2018-05-12T17:25:37.611Z,11.00
2018-05-12T17:28:05.123Z,11.27
2018-05-12T17:30:32.607Z,10.70
2018-05-12T17:33:00.167Z,12.10
2018-05-12T17:35:27.659Z,12.30
2018-05-12T17:37:55.144Z,11.17
2018-05-12T17:40:22.936Z,11.00
2018-05-12T17:42:50.546Z,12.50
2018-05-12T17:45:18.109Z,11.20
2018-05-12T17:47:45.686Z,13.80
2018-05-12T17:50:13.226Z,12.27
2018-05-12T17:52:41.001Z,13.73
2018-05-12T17:55:09.601Z,13.77
2018-05-12T17:57:37.087Z,13.13
2018-05-12T18:00:04.594Z,13.93
2018-05-12T18:02:32.076Z,13.20
2018-05-12T18:04:59.600Z,11.57
2018-05-12T18:07:27.133Z,13.73
2018-05-12T18:09:54.777Z,18.80
2018-05-12T18:12:22.475Z,26.17
2018-05-12T18:14:50.065Z,13.00
2018-05-12T18:17:17.895Z,16.23
2018-05-12T18:19:45.461Z,15.43
2018-05-12T18:22:13.024Z,17.10
2018-05-12T18:24:40.518Z,13.53
2018-05-12T18:27:08.103Z,13.80
2018-05-12T18:29:35.585Z,13.23
2018-05-12T18:32:03.081Z,13.90
2018-05-12T18:34:30.591Z,14.60
2018-05-12T18:36:58.097Z,15.17
2018-05-12T18:39:25.623Z,14.67
2018-05-12T18:41:53.203Z,15.00
2018-05-12T18:44:20.695Z,15.70
2018-05-12T18:46:48.209Z,14.90
2018-05-12T18:49:18.537Z,14.27
2018-05-12T18:51:46.020Z,14.43
2018-05-12T18:54:16.432Z,15.90
2018-05-12T18:56:44.004Z,18.87
2018-05-12T18:59:11.398Z,18.73
2018-05-12T19:01:38.914Z,16.83
2018-05-12T19:04:06.453Z,16.13
2018-05-12T19:06:34.012Z,16.07
2018-05-12T19:09:01.533Z,14.90
2018-05-12T19:11:29.119Z,15.47
2018-05-12T19:13:56.599Z,14.80
2018-05-12T19:16:24.072Z,15.57
2018-05-12T19:18:51.604Z,14.90
2018-05-12T19:21:19.084Z,14.77
2018-05-12T19:23:46.564Z,15.10
2018-05-12T19:26:14.053Z,15.50
2018-05-12T19:28:41.774Z,14.70
2018-05-12T19:31:09.309Z,13.67
2018-05-12T19:33:36.867Z,14.40
2018-05-12T19:36:04.367Z,13.80
2018-05-12T19:38:31.971Z,13.50
2018-05-12T19:40:59.447Z,13.53
2018-05-12T19:43:26.922Z,15.57
2018-05-12T19:45:54.439Z,14.70
2018-05-12T19:48:21.956Z,15.03
2018-05-12T19:50:49.457Z,14.30
2018-05-12T19:53:16.980Z,14.63
2018-05-12T19:55:44.437Z,13.20
2018-05-12T19:58:11.937Z,13.90
2018-05-12T20:00:39.498Z,14.27
2018-05-12T20:03:07.069Z,13.57
2018-05-12T20:05:34.553Z,13.90
2018-05-12T20:08:02.076Z,14.40
2018-05-12T20:10:29.563Z,13.57
2018-05-12T20:12:57.069Z,13.63
2018-05-12T20:15:24.558Z,13.70
2018-05-12T20:17:52.067Z,14.10
2018-05-12T20:20:19.557Z,14.70
2018-05-12T20:22:47.014Z,14.60
2018-05-12T20:25:14.482Z,13.27
2018-05-12T20:27:41.978Z,15.47
2018-05-12T20:30:09.499Z,14.57
2018-05-12T20:32:36.968Z,16.90
2018-05-12T20:35:04.522Z,13.30
2018-05-12T20:37:32.139Z,14.50
2018-05-12T20:39:59.556Z,14.60
2018-05-12T20:42:27.060Z,14.37
2018-05-12T20:44:54.568Z,15.07
2018-05-12T20:47:22.024Z,14.47
2018-05-12T20:49:49.512Z,14.90
2018-05-12T20:52:17.014Z,14.50
2018-05-12T20:54:44.508Z,14.40
2018-05-12T20:57:12.011Z,16.07
2018-05-12T20:59:39.684Z,15.27
2018-05-12T21:02:07.248Z,15.30
2018-05-12T21:04:34.707Z,15.40
2018-05-12T21:07:02.188Z,14.23
2018-05-12T21:09:29.677Z,15.80
2018-05-12T21:11:57.171Z,14.33
2018-05-12T21:14:25.396Z,15.67
2018-05-12T21:16:52.891Z,16.33
2018-05-12T21:19:20.437Z,16.10
2018-05-12T21:21:47.910Z,15.97
2018-05-12T21:24:15.396Z,17.47
2018-05-12T21:26:42.873Z,17.50
2018-05-12T21:29:10.342Z,16.43
2018-05-12T21:31:37.994Z,15.73
2018-05-12T21:34:05.455Z,15.87
2018-05-12T21:36:32.952Z,17.10
2018-05-12T21:39:00.465Z,16.90
2018-05-12T21:41:27.985Z,17.07
2018-05-12T21:43:55.535Z,15.93
2018-05-12T21:46:23.542Z,16.60
2018-05-12T21:48:51.105Z,16.90
2018-05-12T21:51:18.582Z,17.00
2018-05-12T21:53:46.086Z,14.53
2018-05-12T21:56:13.622Z,14.77
2018-05-12T21:58:41.173Z,16.03
2018-05-12T22:01:08.754Z,15.40
2018-05-12T22:03:36.237Z,16.07
2018-05-12T22:06:03.746Z,15.83
2018-05-12T22:08:31.241Z,15.73
2018-05-12T22:10:58.775Z,16.53
2018-05-12T22:13:26.278Z,13.60
2018-05-12T22:15:53.790Z,15.90
2018-05-12T22:18:21.310Z,14.63
2018-05-12T22:20:48.844Z,16.40
2018-05-12T22:23:16.304Z,15.60
2018-05-12T22:25:43.828Z,14.97
2018-05-12T22:28:11.327Z,15.57
2018-05-12T22:30:38.826Z,14.30
2018-05-12T22:33:06.318Z,14.17
2018-05-12T22:35:33.779Z,14.97
2018-05-12T22:38:01.241Z,14.90
2018-05-12T22:40:31.662Z,14.70
2018-05-12T22:42:59.229Z,13.47
2018-05-12T22:45:26.743Z,13.57
2018-05-12T22:47:54.209Z,14.63
2018-05-12T22:50:21.803Z,13.50
2018-05-12T22:52:49.301Z,15.37
2018-05-12T22:55:16.771Z,14.00
2018-05-12T22:57:44.243Z,13.57
2018-05-12T23:00:11.731Z,14.70
2018-05-12T23:02:39.303Z,15.50
2018-05-12T23:05:06.793Z,13.30
2018-05-12T23:07:34.316Z,13.73
2018-05-12T23:10:01.827Z,14.60
2018-05-12T23:12:29.633Z,13.87
2018-05-12T23:14:57.131Z,14.73
2018-05-12T23:17:24.620Z,12.43
2018-05-12T23:19:52.113Z,13.67
2018-05-12T23:22:19.609Z,14.70
2018-05-12T23:24:47.194Z,14.97
2018-05-12T23:27:14.697Z,14.03
2018-05-12T23:29:42.186Z,13.90
2018-05-12T23:32:09.705Z,13.70
2018-05-12T23:34:37.238Z,13.80
2018-05-12T23:37:04.816Z,14.50
2018-05-12T23:39:32.311Z,14.40
2018-05-12T23:41:59.840Z,15.70
2018-05-12T23:44:27.300Z,14.43
2018-05-12T23:46:54.793Z,14.90
2018-05-12T23:49:22.430Z,14.30
2018-05-12T23:51:49.898Z,15.13
2018-05-12T23:54:17.384Z,15.07
2018-05-12T23:56:44.855Z,15.53
2018-05-12T23:59:12.439Z,15.60
